Danica Hav — C6ML9 — position and weather

sailwx.info

Track history (hours):
 
Tides and Currents Weather Stations Pressure Air Temp Water Temp Dewpoint Dewpoint Depression Visibility Wind Speed Wind Dir Waves Ship Positions

Danica Hav

Last reported at 2018-Feb-23 10:17 UTC. Time now 2018-Feb-24 00:56 UTC.
Position N 53°43' W 000°36'.

Length 82 m; draft 4.3 m.

Type: Cargo ship. MMSI: 308924000.

Date/timePositionNaut miles runAvg speedWind from/ knotsBaromVisibWave heightAir tempDewpointWater temp
2018-Feb-23 10:17N 53°43' W 000°36'3 8.6
2018-Feb-23 09:58N 53°41' W 000°33'4 7.9
2018-Feb-23 09:30N 53°42' W 000°27'510.1
2018-Feb-23 09:00N 53°44' W 000°18'5 9.1
2018-Feb-23 08:30N 53°40' W 000°13'510.1
2018-Feb-23 08:00N 53°37' W 000°06'4 7.5
2018-Feb-23 07:30N 53°36' W 000°00'56 3.2
2018-Feb-22 13:55N 53°01' E 001°14'3 8.0
2018-Feb-22 13:30N 52°60' E 001°19'4 7.4
2018-Feb-22 13:00N 52°59' E 001°24'3 7.0
2018-Feb-22 12:30N 52°57' E 001°30'3 6.3
2018-Feb-22 12:00N 52°56' E 001°34'3 6.4
2018-Feb-22 11:30N 52°53' E 001°38'3 6.6
2018-Feb-22 11:00N 52°51' E 001°42'4 7.1
2018-Feb-22 10:30N 52°49' E 001°46'4 7.2
2018-Feb-22 10:00N 52°46' E 001°51'3 6.9
2018-Feb-22 09:30N 52°44' E 001°55'75 8.2
2018-Feb-22 00:18N 52°31' E 003°58'3 9.0
2018-Feb-21 23:59N 52°31' E 004°02'4 8.9
2018-Feb-21 23:30N 52°31' E 004°09'4 8.6
2018-Feb-21 23:00N 52°31' E 004°16'4 8.3
2018-Feb-21 22:30N 52°30' E 004°23'4 8.0
2018-Feb-21 22:00N 52°29' E 004°29'4 7.5
2018-Feb-21 21:30N 52°28' E 004°35'1 1.5
2018-Feb-21 21:00N 52°28' E 004°37'4 8.1
2018-Feb-21 20:31N 52°26' E 004°43'5 9.3
2018-Feb-21 20:00N 52°25' E 004°50'2 3.0
2018-Feb-21 19:30N 52°24' E 004°52'0 0.0
2018-Feb-21 19:00N 52°24' E 004°52'0 0.0
2018-Feb-21 18:30N 52°24' E 004°52'0 0.0
2018-Feb-21 18:00N 52°24' E 004°52'0 0.0
2018-Feb-21 17:30N 52°24' E 004°52'0 0.0
2018-Feb-21 17:00N 52°24' E 004°52'0 0.0
2018-Feb-21 16:30N 52°24' E 004°52'0 0.0
2018-Feb-21 16:00N 52°24' E 004°52'0 0.0
2018-Feb-21 15:30N 52°24' E 004°52'0 0.0
2018-Feb-21 15:00N 52°24' E 004°52'0 0.0
2018-Feb-21 14:30N 52°24' E 004°52'0 0.0
2018-Feb-21 14:00N 52°24' E 004°52'0 0.0
2018-Feb-21 13:30N 52°24' E 004°52'0 0.0
2018-Feb-21 13:00N 52°24' E 004°52'0 0.1
2018-Feb-21 12:30N 52°24' E 004°52'0 0.8
2018-Feb-21 11:59N 52°24' E 004°52'0 0.0
2018-Feb-21 11:29N 52°24' E 004°52'0 0.0
2018-Feb-21 10:59N 52°24' E 004°52'0 0.0
2018-Feb-21 10:29N 52°24' E 004°52'0 0.0
2018-Feb-21 09:59N 52°24' E 004°52'0 0.0
2018-Feb-21 09:29N 52°24' E 004°52'0 0.0
2018-Feb-21 08:59N 52°24' E 004°52'0 0.0
2018-Feb-21 08:29N 52°24' E 004°52'0 0.0
2018-Feb-21 07:59N 52°24' E 004°52'0 0.0
2018-Feb-21 07:30N 52°24' E 004°52'0 0.7
2018-Feb-21 07:00N 52°24' E 004°52'0 0.0
2018-Feb-21 06:30N 52°24' E 004°52'0 0.0
2018-Feb-21 06:00N 52°24' E 004°52'0 0.0
2018-Feb-21 05:31N 52°24' E 004°52'0 0.0
2018-Feb-21 05:00N 52°24' E 004°52'0 0.0
2018-Feb-21 04:30N 52°24' E 004°52'0 0.0
2018-Feb-21 04:01N 52°24' E 004°52'0 0.0
2018-Feb-21 03:30N 52°24' E 004°52'0 0.0
2018-Feb-21 02:59N 52°24' E 004°52'0 0.0
2018-Feb-21 01:59N 52°24' E 004°52'0 0.0
2018-Feb-21 01:29N 52°24' E 004°52'0 0.0
2018-Feb-21 01:01N 52°24' E 004°52'0 0.0
2018-Feb-21 00:29N 52°24' E 004°52'0 0.0
2018-Feb-21 00:00N 52°24' E 004°52'0 0.0
2018-Feb-20 23:30N 52°24' E 004°52'0 0.0
2018-Feb-20 22:59N 52°24' E 004°52'0 0.0
2018-Feb-20 22:31N 52°24' E 004°52'0 0.7
2018-Feb-20 22:00N 52°24' E 004°52'0 0.0
2018-Feb-20 21:30N 52°24' E 004°52'0 0.0
2018-Feb-20 21:00N 52°24' E 004°52'0 0.0
2018-Feb-20 20:30N 52°24' E 004°52'0 0.0
2018-Feb-20 20:00N 52°24' E 004°52'0 0.0
2018-Feb-20 19:29N 52°24' E 004°52'0 0.0
2018-Feb-20 19:00N 52°24' E 004°52'0 0.0
2018-Feb-20 18:26N 52°24' E 004°52'0 0.0
2018-Feb-20 17:59N 52°24' E 004°52'0 0.0
2018-Feb-20 17:29N 52°24' E 004°52'0 0.0
2018-Feb-20 16:59N 52°24' E 004°52'0 0.0
2018-Feb-20 16:29N 52°24' E 004°52'0 0.0
2018-Feb-20 15:59N 52°24' E 004°52'0 0.0
2018-Feb-20 15:29N 52°24' E 004°52'0 0.0
2018-Feb-20 14:59N 52°24' E 004°52'0 0.0
2018-Feb-20 14:29N 52°24' E 004°52'0 0.0
2018-Feb-20 14:00N 52°24' E 004°52'0 0.0
2018-Feb-20 13:30N 52°24' E 004°52'0 0.0
2018-Feb-20 13:00N 52°24' E 004°52'0 0.0
2018-Feb-20 12:30N 52°24' E 004°52'0 0.0
2018-Feb-20 12:00N 52°24' E 004°52'0 0.0
2018-Feb-20 11:30N 52°24' E 004°52'0 0.0
2018-Feb-20 11:00N 52°24' E 004°52'0 0.0
2018-Feb-20 10:30N 52°24' E 004°52'0 0.0
2018-Feb-20 10:00N 52°24' E 004°52'0 0.0
2018-Feb-20 09:30N 52°24' E 004°52'0 0.0
2018-Feb-20 09:00N 52°24' E 004°52'0 0.0
2018-Feb-20 08:30N 52°24' E 004°52'0 0.0
2018-Feb-20 08:00N 52°24' E 004°52'0 0.0
2018-Feb-20 07:30N 52°24' E 004°52'2 3.1
2018-Feb-20 07:00N 52°25' E 004°50'5 9.9
2018-Feb-20 06:30N 52°26' E 004°42'4 8.6
2018-Feb-20 06:00N 52°28' E 004°36'0 0.9
2018-Feb-20 05:31N 52°28' E 004°35'4 7.6
2018-Feb-20 05:00N 52°28' E 004°29'4 8.0
2018-Feb-20 04:30N 52°30' E 004°23'2 2.8
2018-Feb-20 03:58N 52°31' E 004°21'0 0.0
2018-Feb-20 03:28N 52°31' E 004°21'0 0.0
2018-Feb-20 02:58N 52°31' E 004°21'0 0.0
2018-Feb-20 02:28N 52°31' E 004°21'0 0.0
2018-Feb-20 01:55N 52°31' E 004°21'0 0.0
2018-Feb-20 01:28N 52°31' E 004°21'0 0.0
2018-Feb-20 00:58N 52°31' E 004°21'0 0.0
2018-Feb-20 00:28N 52°31' E 004°21'0 0.0
2018-Feb-19 23:58N 52°31' E 004°21'0 0.0
2018-Feb-19 23:16N 52°31' E 004°21'0 0.0
2018-Feb-19 22:58N 52°31' E 004°21'0 0.0
2018-Feb-19 22:16N 52°31' E 004°21'0 0.1
2018-Feb-19 21:58N 52°31' E 004°21'0 0.1
2018-Feb-19 21:25N 52°31' E 004°21'0 0.0
2018-Feb-19 20:58N 52°31' E 004°21'0 0.0
2018-Feb-19 20:25N 52°31' E 004°21'0 0.0
2018-Feb-19 19:34N 52°31' E 004°21'0 0.1
2018-Feb-19 19:28N 52°31' E 004°21'0 0.0
2018-Feb-19 18:58N 52°31' E 004°21'0 0.0
2018-Feb-19 18:28N 52°31' E 004°21'0 0.0
2018-Feb-19 17:58N 52°31' E 004°21'0 0.0
2018-Feb-19 17:28N 52°31' E 004°21'0 0.0
2018-Feb-19 16:58N 52°31' E 004°21'0 0.0
2018-Feb-19 16:16N 52°31' E 004°21'0 0.0
2018-Feb-19 15:58N 52°31' E 004°21'0 0.0
2018-Feb-19 15:28N 52°31' E 004°21'0 0.0
2018-Feb-19 14:52N 52°31' E 004°21'0 0.0
2018-Feb-19 14:28N 52°31' E 004°21'0 0.0
2018-Feb-19 13:58N 52°31' E 004°21'0 0.0
2018-Feb-19 13:28N 52°31' E 004°21'0 0.0
2018-Feb-19 12:58N 52°31' E 004°21'0 0.0
2018-Feb-19 12:28N 52°31' E 004°21'0 0.0
2018-Feb-19 11:55N 52°31' E 004°21'0 0.0
2018-Feb-19 11:28N 52°31' E 004°21'0 0.0
2018-Feb-19 10:52N 52°31' E 004°21'0 0.2
2018-Feb-19 10:31N 52°31' E 004°21'0 0.1
2018-Feb-19 10:01N 52°31' E 004°21'0 0.1
2018-Feb-19 09:30N 52°31' E 004°21'0 0.0
2018-Feb-19 09:00N 52°31' E 004°21'0 0.0
2018-Feb-19 08:12N 52°31' E 004°21'0 0.0
2018-Feb-19 07:57N 52°31' E 004°21'0 0.0
2018-Feb-19 07:30N 52°31' E 004°21'0 0.0
2018-Feb-19 07:00N 52°31' E 004°21'0 0.0
2018-Feb-19 06:27N 52°31' E 004°21'0 0.0
2018-Feb-19 05:57N 52°31' E 004°21'0 0.0
2018-Feb-19 05:30N 52°31' E 004°21'0 0.0
2018-Feb-19 04:57N 52°31' E 004°21'0 0.0
2018-Feb-19 04:30N 52°31' E 004°21'0 0.0
2018-Feb-19 03:54N 52°31' E 004°21'0 0.0
2018-Feb-19 03:27N 52°31' E 004°21'0 0.0
2018-Feb-19 02:57N 52°31' E 004°21'0 0.0
2018-Feb-19 02:27N 52°31' E 004°21'0 0.0
2018-Feb-19 02:00N 52°31' E 004°21'0 0.1
2018-Feb-19 01:30N 52°31' E 004°21'0 0.1
2018-Feb-19 01:00N 52°31' E 004°21'0 0.0
2018-Feb-19 00:30N 52°31' E 004°21'0 0.0
2018-Feb-19 00:00N 52°31' E 004°21'0 0.0
2018-Feb-18 23:30N 52°31' E 004°21'0 0.0
2018-Feb-18 23:00N 52°31' E 004°21'0 0.0
2018-Feb-18 22:30N 52°31' E 004°21'0 0.0
2018-Feb-18 21:57N 52°31' E 004°21'0 0.1
2018-Feb-18 21:30N 52°31' E 004°21'0 0.1
2018-Feb-18 21:00N 52°31' E 004°21'0 0.0
2018-Feb-18 20:21N 52°31' E 004°21'0 0.0
2018-Feb-18 19:57N 52°31' E 004°21'0 0.0
2018-Feb-18 19:30N 52°31' E 004°21'0 0.0
2018-Feb-18 19:00N 52°31' E 004°21'0 0.0
2018-Feb-18 18:30N 52°31' E 004°21'0 0.0
2018-Feb-18 17:51N 52°31' E 004°21'0 0.0
2018-Feb-18 17:30N 52°31' E 004°21'0 0.0
2018-Feb-18 16:57N 52°31' E 004°21'0 0.0
2018-Feb-18 16:21N 52°31' E 004°21'0 0.0
2018-Feb-18 16:00N 52°31' E 004°21'0 0.0
2018-Feb-18 15:27N 52°31' E 004°21'0 0.0
2018-Feb-18 15:00N 52°31' E 004°21'0 0.1
2018-Feb-18 14:30N 52°31' E 004°21'0 0.1
2018-Feb-18 14:00N 52°31' E 004°21'0 0.0
2018-Feb-18 13:27N 52°31' E 004°21'0 0.0
2018-Feb-18 13:00N 52°31' E 004°21'0 0.0
2018-Feb-18 12:27N 52°31' E 004°21'0 0.0
2018-Feb-18 12:00N 52°31' E 004°21'0 0.0
2018-Feb-18 11:24N 52°31' E 004°21'0 0.0
2018-Feb-18 11:00N 52°31' E 004°21'0 0.0
2018-Feb-18 10:30N 52°31' E 004°21'0 0.0
2018-Feb-18 10:00N 52°31' E 004°21'0 0.0
2018-Feb-18 09:30N 52°31' E 004°21'0 0.1
2018-Feb-18 08:57N 52°31' E 004°21'0 0.0
2018-Feb-18 08:24N 52°31' E 004°21'0 0.0
2018-Feb-18 07:57N 52°31' E 004°21'0 0.0
2018-Feb-18 07:30N 52°31' E 004°21'0 0.0
2018-Feb-18 07:00N 52°31' E 004°21'0 0.0
2018-Feb-18 06:30N 52°31' E 004°21'0 0.0
2018-Feb-18 05:57N 52°31' E 004°21'0 0.0
2018-Feb-18 05:27N 52°31' E 004°21'0 0.0
2018-Feb-18 05:00N 52°31' E 004°21'0 0.0
2018-Feb-18 04:30N 52°31' E 004°21'0 0.0
2018-Feb-18 04:00N 52°31' E 004°21'0 0.0
2018-Feb-18 03:27N 52°31' E 004°21'0 0.0
2018-Feb-18 02:54N 52°31' E 004°21'0 0.0
2018-Feb-18 02:27N 52°31' E 004°21'0 0.0
2018-Feb-18 02:00N 52°31' E 004°21'0 0.1
2018-Feb-18 01:30N 52°31' E 004°21'0 0.1
2018-Feb-18 00:57N 52°31' E 004°21'0 0.0
2018-Feb-18 00:27N 52°31' E 004°21'0 0.0
2018-Feb-17 23:57N 52°31' E 004°21'0 0.0
2018-Feb-17 23:30N 52°31' E 004°21'0 0.0
2018-Feb-17 22:57N 52°31' E 004°21'0 0.0
2018-Feb-17 22:30N 52°31' E 004°21'0 0.0
2018-Feb-17 22:00N 52°31' E 004°21'0 0.0
2018-Feb-17 21:30N 52°31' E 004°21'0 0.0
2018-Feb-17 20:57N 52°31' E 004°21'0 0.1
2018-Feb-17 20:30N 52°31' E 004°21'0 0.0
2018-Feb-17 20:00N 52°31' E 004°21'0 0.0
2018-Feb-17 19:30N 52°31' E 004°21'0 0.0
2018-Feb-17 18:57N 52°31' E 004°21'0 0.0
2018-Feb-17 18:26N 52°31' E 004°21'0 0.0
2018-Feb-17 17:56N 52°31' E 004°21'0 0.0
2018-Feb-17 17:29N 52°31' E 004°21'0 0.0
2018-Feb-17 16:56N 52°31' E 004°21'0 0.0
2018-Feb-17 16:26N 52°31' E 004°21'0 0.0
2018-Feb-17 15:56N 52°31' E 004°21'0 0.0
2018-Feb-17 15:23N 52°31' E 004°21'0 0.0
2018-Feb-17 14:56N 52°31' E 004°21'0 0.0
2018-Feb-17 14:29N 52°31' E 004°21'0 0.2
2018-Feb-17 13:59N 52°31' E 004°21'2 4.8
2018-Feb-17 13:30N 52°29' E 004°20'5 9.8
2018-Feb-17 13:00N 52°29' E 004°12'5 9.8
2018-Feb-17 12:30N 52°28' E 004°04'5 9.5
2018-Feb-17 12:00N 52°27' E 003°56'4 8.5
2018-Feb-17 11:30N 52°23' E 003°52'5 9.4
2018-Feb-17 11:00N 52°18' E 003°52'5 9.6
2018-Feb-17 10:30N 52°14' E 003°53'5 9.6
2018-Feb-17 10:00N 52°09' E 003°54'5 9.2
2018-Feb-17 09:30N 52°04' E 003°55'5 9.0
2018-Feb-17 09:00N 52°00' E 003°53'4 7.9
2018-Feb-17 08:30N 51°57' E 003°49'1 1.4
2018-Feb-17 08:00N 51°56' E 003°49'0 0.0
2018-Feb-17 07:27N 51°56' E 003°49'0 0.0
2018-Feb-17 06:57N 51°56' E 003°49'0 0.1
2018-Feb-17 06:30N 51°56' E 003°49'0 0.1
2018-Feb-17 06:00N 51°56' E 003°49'0 0.0
2018-Feb-17 05:21N 51°56' E 003°49'0 0.0
2018-Feb-17 05:00N 51°56' E 003°49'0 0.0
2018-Feb-17 04:27N 51°56' E 003°49'0 0.0
2018-Feb-17 04:00N 51°56' E 003°49'0 0.0
2018-Feb-17 03:30N 51°56' E 003°49'0 0.0
2018-Feb-17 03:00N 51°56' E 003°49'0 0.0
2018-Feb-17 02:30N 51°56' E 003°49'0 0.0
2018-Feb-17 02:00N 51°56' E 003°49'0 0.1
2018-Feb-17 01:30N 51°56' E 003°49'0 0.1
2018-Feb-17 01:00N 51°56' E 003°49'0 0.1
2018-Feb-17 00:30N 51°56' E 003°49'0 0.0
2018-Feb-16 23:48N 51°56' E 003°49'0 0.0
2018-Feb-16 23:30N 51°56' E 003°49'0 0.0
2018-Feb-16 22:54N 51°56' E 003°49'0 0.1
2018-Feb-16 22:30N 51°56' E 003°49'0 0.0
2018-Feb-16 21:57N 51°56' E 003°48'0 0.0
2018-Feb-16 21:15N 51°56' E 003°49'0 0.0
2018-Feb-16 20:27N 51°56' E 003°49'0 0.0
2018-Feb-16 20:00N 51°56' E 003°49'0 0.1
2018-Feb-16 19:27N 51°56' E 003°49'0 0.0
2018-Feb-16 12:15N 51°56' E 003°49'0 0.1
2018-Feb-16 12:00N 51°56' E 003°49'0 0.1
2018-Feb-16 11:21N 51°56' E 003°49'0 0.0
2018-Feb-16 11:00N 51°56' E 003°49'0 0.0
2018-Feb-16 10:30N 51°56' E 003°49'0 0.0
2018-Feb-16 09:48N 51°56' E 003°49'0 0.0
2018-Feb-16 09:30N 51°56' E 003°49'0 0.0
2018-Feb-16 08:48N 51°56' E 003°49'0 0.0
2018-Feb-16 08:21N 51°56' E 003°49'0 0.1
2018-Feb-16 08:00N 51°56' E 003°49'0 0.0
2018-Feb-16 07:30N 51°56' E 003°49'0 0.1
2018-Feb-16 06:45N 51°56' E 003°49'0 0.0
2018-Feb-15 23:56N 51°56' E 003°49'0 0.0
2018-Feb-15 23:02N 51°56' E 003°49'0 0.1
2018-Feb-15 22:53N 51°56' E 003°49'0 0.1
2018-Feb-15 22:29N 51°56' E 003°49'0 0.1
2018-Feb-15 21:56N 51°56' E 003°49'0 0.0
2018-Feb-15 20:41N 51°56' E 003°49'0 0.0
2018-Feb-15 20:17N 51°56' E 003°49'0 0.0
2018-Feb-15 19:47N 51°56' E 003°49'0 0.1
2018-Feb-15 19:26N 51°56' E 003°49'0 0.1
2018-Feb-15 18:59N 51°56' E 003°49'0 0.1
2018-Feb-15 18:14N 51°56' E 003°49'0 0.0
2018-Feb-15 17:05N 51°56' E 003°49'0 0.0
2018-Feb-15 16:14N 51°56' E 003°49'0 0.0
2018-Feb-15 11:41N 51°56' E 003°49'0 0.0
2018-Feb-15 11:20N 51°56' E 003°49'0 0.0
2018-Feb-15 10:53N 51°56' E 003°49'0 0.1
2018-Feb-15 10:11N 51°56' E 003°49'0 0.1
2018-Feb-15 09:50N 51°56' E 003°49'0 0.0
2018-Feb-15 08:38N 51°56' E 003°49'0 0.0
2018-Feb-15 08:20N 51°56' E 003°49'0 0.1
2018-Feb-15 07:56N 51°56' E 003°49'0 0.1
2018-Feb-15 07:02N 51°56' E 003°49'0 0.0
2018-Feb-15 06:59N 51°56' E 003°49'0 0.0
2018-Feb-15 05:47N 51°56' E 003°49'0 0.0
2018-Feb-15 05:29N 51°56' E 003°49'0 0.0
2018-Feb-15 04:53N 51°56' E 003°49'0 0.0
2018-Feb-15 04:20N 51°56' E 003°49'0 0.0
2018-Feb-15 03:53N 51°56' E 003°49'0 0.0
2018-Feb-15 03:29N 51°56' E 003°49'0 0.0
2018-Feb-15 02:53N 51°56' E 003°49'0 0.0
2018-Feb-15 02:29N 51°56' E 003°49'0 0.0
2018-Feb-15 01:59N 51°56' E 003°49'0 0.0
2018-Feb-15 00:44N 51°56' E 003°49'0 0.0
2018-Feb-15 00:29N 51°56' E 003°49'0 0.0
2018-Feb-14 23:56N 51°56' E 003°49'0 0.0
2018-Feb-14 23:29N 51°56' E 003°49'0 0.0
2018-Feb-14 22:53N 51°56' E 003°49'0 0.0
2018-Feb-14 22:17N 51°56' E 003°49'0 0.0
2018-Feb-14 21:59N 51°56' E 003°49'0 0.0
2018-Feb-14 21:23N 51°56' E 003°48'0 0.1
2018-Feb-14 20:59N 51°56' E 003°48'0 0.0
2018-Feb-14 20:29N 51°56' E 003°48'0 0.0
2018-Feb-14 19:56N 51°56' E 003°48'0 0.0
2018-Feb-14 19:26N 51°56' E 003°48'0 0.0
2018-Feb-14 18:56N 51°56' E 003°49'0 0.0
2018-Feb-14 17:32N 51°56' E 003°49'0 0.0
2018-Feb-14 17:23N 51°56' E 003°49'0 0.0
2018-Feb-14 16:50N 51°56' E 003°49'0 0.0
2018-Feb-14 16:20N 51°56' E 003°49'0 0.0
2018-Feb-14 15:59N 51°56' E 003°49'0 0.0
2018-Feb-14 15:23N 51°56' E 003°49'0 0.0
2018-Feb-14 14:11N 51°56' E 003°49'0 0.0
2018-Feb-14 13:53N 51°56' E 003°49'0 0.0
2018-Feb-14 13:29N 51°56' E 003°49'0 0.0
2018-Feb-14 12:56N 51°56' E 003°49'0 0.0
2018-Feb-14 12:26N 51°56' E 003°49'0 0.0
2018-Feb-14 11:38N 51°56' E 003°49'0 0.0
2018-Feb-14 11:17N 51°56' E 003°49'0 0.0
2018-Feb-14 10:53N 51°56' E 003°49'0 0.0
2018-Feb-14 09:55N 51°56' E 003°49'0 0.0
2018-Feb-14 09:28N 51°56' E 003°49'0 0.0
2018-Feb-14 08:52N 51°56' E 003°48'0 0.1
2018-Feb-14 08:25N 51°56' E 003°48'0 0.0
2018-Feb-14 07:52N 51°56' E 003°48'0 0.0
2018-Feb-14 07:28N 51°56' E 003°48'0 0.0
2018-Feb-14 06:52N 51°56' E 003°48'0 0.1
2018-Feb-14 06:25N 51°56' E 003°49'0 0.0
2018-Feb-14 05:55N 51°56' E 003°49'0 0.0
2018-Feb-14 05:19N 51°56' E 003°49'0 0.0
2018-Feb-14 04:40N 51°56' E 003°49'0 0.0
2018-Feb-14 04:10N 51°56' E 003°49'0 0.0
2018-Feb-14 03:46N 51°56' E 003°49'0 0.0
2018-Feb-14 03:28N 51°56' E 003°49'0 0.0
2018-Feb-14 02:52N 51°56' E 003°49'0 0.0
2018-Feb-14 02:28N 51°56' E 003°49'0 0.0
2018-Feb-14 01:52N 51°56' E 003°49'0 0.0
2018-Feb-14 01:25N 51°56' E 003°49'0 0.0
2018-Feb-14 00:58N 51°56' E 003°49'0 0.0
2018-Feb-14 00:16N 51°56' E 003°49'0 0.0
2018-Feb-13 23:55N 51°56' E 003°49'0 0.1
2018-Feb-13 23:16N 51°56' E 003°49'0 0.0
2018-Feb-13 22:58N 51°56' E 003°49'0 0.0
2018-Feb-13 21:25N 51°56' E 003°48'0 0.0
2018-Feb-13 20:49N 51°56' E 003°48'0 0.1
2018-Feb-13 20:28N 51°56' E 003°48'0 0.0
2018-Feb-13 19:49N 51°56' E 003°48'0 0.0
2018-Feb-13 19:13N 51°56' E 003°48'0 0.1
2018-Feb-13 18:58N 51°56' E 003°48'0 0.0
2018-Feb-13 18:28N 51°56' E 003°48'0 0.1
2018-Feb-13 17:58N 51°56' E 003°49'0 0.0
2018-Feb-13 17:25N 51°56' E 003°49'0 0.0
2018-Feb-13 15:10N 51°56' E 003°49'0 0.0
2018-Feb-13 14:55N 51°56' E 003°49'0 0.0
2018-Feb-13 13:07N 51°56' E 003°49'0 0.0
2018-Feb-13 12:49N 51°56' E 003°49'0 0.0
2018-Feb-13 12:28N 51°56' E 003°49'0 0.0
2018-Feb-13 11:55N 51°56' E 003°49'  
Track history (hours):
 
Tides and Currents Weather Stations Pressure Air Temp Water Temp Dewpoint Dewpoint Depression Visibility Wind Speed Wind Dir Waves Ship Positions

Danica Hav

Last reported at 2018-Feb-23 10:17 UTC. Time now 2018-Feb-24 00:56 UTC.
Position N 53°43' W 000°36'.

Length 82 m; draft 4.3 m.

Type: Cargo ship. MMSI: 308924000.

Date/timePositionNaut miles runAvg speedWind from/ knotsBaromVisibWave heightAir tempDewpointWater temp
2018-Feb-23 10:17N 53°43' W 000°36'3 8.6
2018-Feb-23 09:58N 53°41' W 000°33'4 7.9
2018-Feb-23 09:30N 53°42' W 000°27'510.1
2018-Feb-23 09:00N 53°44' W 000°18'5 9.1
2018-Feb-23 08:30N 53°40' W 000°13'510.1
2018-Feb-23 08:00N 53°37' W 000°06'4 7.5
2018-Feb-23 07:30N 53°36' W 000°00'56 3.2
2018-Feb-22 13:55N 53°01' E 001°14'3 8.0
2018-Feb-22 13:30N 52°60' E 001°19'4 7.4
2018-Feb-22 13:00N 52°59' E 001°24'3 7.0
2018-Feb-22 12:30N 52°57' E 001°30'3 6.3
2018-Feb-22 12:00N 52°56' E 001°34'3 6.4
2018-Feb-22 11:30N 52°53' E 001°38'3 6.6
2018-Feb-22 11:00N 52°51' E 001°42'4 7.1
2018-Feb-22 10:30N 52°49' E 001°46'4 7.2
2018-Feb-22 10:00N 52°46' E 001°51'3 6.9
2018-Feb-22 09:30N 52°44' E 001°55'75 8.2
2018-Feb-22 00:18N 52°31' E 003°58'3 9.0
2018-Feb-21 23:59N 52°31' E 004°02'4 8.9
2018-Feb-21 23:30N 52°31' E 004°09'4 8.6
2018-Feb-21 23:00N 52°31' E 004°16'4 8.3
2018-Feb-21 22:30N 52°30' E 004°23'4 8.0
2018-Feb-21 22:00N 52°29' E 004°29'4 7.5
2018-Feb-21 21:30N 52°28' E 004°35'1 1.5
2018-Feb-21 21:00N 52°28' E 004°37'4 8.1
2018-Feb-21 20:31N 52°26' E 004°43'5 9.3
2018-Feb-21 20:00N 52°25' E 004°50'2 3.0
2018-Feb-21 19:30N 52°24' E 004°52'0 0.0
2018-Feb-21 19:00N 52°24' E 004°52'0 0.0
2018-Feb-21 18:30N 52°24' E 004°52'0 0.0
2018-Feb-21 18:00N 52°24' E 004°52'0 0.0
2018-Feb-21 17:30N 52°24' E 004°52'0 0.0
2018-Feb-21 17:00N 52°24' E 004°52'0 0.0
2018-Feb-21 16:30N 52°24' E 004°52'0 0.0
2018-Feb-21 16:00N 52°24' E 004°52'0 0.0
2018-Feb-21 15:30N 52°24' E 004°52'0 0.0
2018-Feb-21 15:00N 52°24' E 004°52'0 0.0
2018-Feb-21 14:30N 52°24' E 004°52'0 0.0
2018-Feb-21 14:00N 52°24' E 004°52'0 0.0
2018-Feb-21 13:30N 52°24' E 004°52'0 0.0
2018-Feb-21 13:00N 52°24' E 004°52'0 0.1
2018-Feb-21 12:30N 52°24' E 004°52'0 0.8
2018-Feb-21 11:59N 52°24' E 004°52'0 0.0
2018-Feb-21 11:29N 52°24' E 004°52'0 0.0
2018-Feb-21 10:59N 52°24' E 004°52'0 0.0
2018-Feb-21 10:29N 52°24' E 004°52'0 0.0
2018-Feb-21 09:59N 52°24' E 004°52'0 0.0
2018-Feb-21 09:29N 52°24' E 004°52'0 0.0
2018-Feb-21 08:59N 52°24' E 004°52'0 0.0
2018-Feb-21 08:29N 52°24' E 004°52'0 0.0
2018-Feb-21 07:59N 52°24' E 004°52'0 0.0
2018-Feb-21 07:30N 52°24' E 004°52'0 0.7
2018-Feb-21 07:00N 52°24' E 004°52'0 0.0
2018-Feb-21 06:30N 52°24' E 004°52'0 0.0
2018-Feb-21 06:00N 52°24' E 004°52'0 0.0
2018-Feb-21 05:31N 52°24' E 004°52'0 0.0
2018-Feb-21 05:00N 52°24' E 004°52'0 0.0
2018-Feb-21 04:30N 52°24' E 004°52'0 0.0
2018-Feb-21 04:01N 52°24' E 004°52'0 0.0
2018-Feb-21 03:30N 52°24' E 004°52'0 0.0
2018-Feb-21 02:59N 52°24' E 004°52'0 0.0
2018-Feb-21 01:59N 52°24' E 004°52'0 0.0
2018-Feb-21 01:29N 52°24' E 004°52'0 0.0
2018-Feb-21 01:01N 52°24' E 004°52'0 0.0
2018-Feb-21 00:29N 52°24' E 004°52'0 0.0
2018-Feb-21 00:00N 52°24' E 004°52'0 0.0
2018-Feb-20 23:30N 52°24' E 004°52'0 0.0
2018-Feb-20 22:59N 52°24' E 004°52'0 0.0
2018-Feb-20 22:31N 52°24' E 004°52'0 0.7
2018-Feb-20 22:00N 52°24' E 004°52'0 0.0
2018-Feb-20 21:30N 52°24' E 004°52'0 0.0
2018-Feb-20 21:00N 52°24' E 004°52'0 0.0
2018-Feb-20 20:30N 52°24' E 004°52'0 0.0
2018-Feb-20 20:00N 52°24' E 004°52'0 0.0
2018-Feb-20 19:29N 52°24' E 004°52'0 0.0
2018-Feb-20 19:00N 52°24' E 004°52'0 0.0
2018-Feb-20 18:26N 52°24' E 004°52'0 0.0
2018-Feb-20 17:59N 52°24' E 004°52'0 0.0
2018-Feb-20 17:29N 52°24' E 004°52'0 0.0
2018-Feb-20 16:59N 52°24' E 004°52'0 0.0
2018-Feb-20 16:29N 52°24' E 004°52'0 0.0
2018-Feb-20 15:59N 52°24' E 004°52'0 0.0
2018-Feb-20 15:29N 52°24' E 004°52'0 0.0
2018-Feb-20 14:59N 52°24' E 004°52'0 0.0
2018-Feb-20 14:29N 52°24' E 004°52'0 0.0
2018-Feb-20 14:00N 52°24' E 004°52'0 0.0
2018-Feb-20 13:30N 52°24' E 004°52'0 0.0
2018-Feb-20 13:00N 52°24' E 004°52'0 0.0
2018-Feb-20 12:30N 52°24' E 004°52'0 0.0
2018-Feb-20 12:00N 52°24' E 004°52'0 0.0
2018-Feb-20 11:30N 52°24' E 004°52'0 0.0
2018-Feb-20 11:00N 52°24' E 004°52'0 0.0
2018-Feb-20 10:30N 52°24' E 004°52'0 0.0
2018-Feb-20 10:00N 52°24' E 004°52'0 0.0
2018-Feb-20 09:30N 52°24' E 004°52'0 0.0
2018-Feb-20 09:00N 52°24' E 004°52'0 0.0
2018-Feb-20 08:30N 52°24' E 004°52'0 0.0
2018-Feb-20 08:00N 52°24' E 004°52'0 0.0
2018-Feb-20 07:30N 52°24' E 004°52'2 3.1
2018-Feb-20 07:00N 52°25' E 004°50'5 9.9
2018-Feb-20 06:30N 52°26' E 004°42'4 8.6
2018-Feb-20 06:00N 52°28' E 004°36'0 0.9
2018-Feb-20 05:31N 52°28' E 004°35'4 7.6
2018-Feb-20 05:00N 52°28' E 004°29'4 8.0
2018-Feb-20 04:30N 52°30' E 004°23'2 2.8
2018-Feb-20 03:58N 52°31' E 004°21'0 0.0
2018-Feb-20 03:28N 52°31' E 004°21'0 0.0
2018-Feb-20 02:58N 52°31' E 004°21'0 0.0
2018-Feb-20 02:28N 52°31' E 004°21'0 0.0
2018-Feb-20 01:55N 52°31' E 004°21'0 0.0
2018-Feb-20 01:28N 52°31' E 004°21'0 0.0
2018-Feb-20 00:58N 52°31' E 004°21'0 0.0
2018-Feb-20 00:28N 52°31' E 004°21'0 0.0
2018-Feb-19 23:58N 52°31' E 004°21'0 0.0
2018-Feb-19 23:16N 52°31' E 004°21'0 0.0
2018-Feb-19 22:58N 52°31' E 004°21'0 0.0
2018-Feb-19 22:16N 52°31' E 004°21'0 0.1
2018-Feb-19 21:58N 52°31' E 004°21'0 0.1
2018-Feb-19 21:25N 52°31' E 004°21'0 0.0
2018-Feb-19 20:58N 52°31' E 004°21'0 0.0
2018-Feb-19 20:25N 52°31' E 004°21'0 0.0
2018-Feb-19 19:34N 52°31' E 004°21'0 0.1
2018-Feb-19 19:28N 52°31' E 004°21'0 0.0
2018-Feb-19 18:58N 52°31' E 004°21'0 0.0
2018-Feb-19 18:28N 52°31' E 004°21'0 0.0
2018-Feb-19 17:58N 52°31' E 004°21'0 0.0
2018-Feb-19 17:28N 52°31' E 004°21'0 0.0
2018-Feb-19 16:58N 52°31' E 004°21'0 0.0
2018-Feb-19 16:16N 52°31' E 004°21'0 0.0
2018-Feb-19 15:58N 52°31' E 004°21'0 0.0
2018-Feb-19 15:28N 52°31' E 004°21'0 0.0
2018-Feb-19 14:52N 52°31' E 004°21'0 0.0
2018-Feb-19 14:28N 52°31' E 004°21'0 0.0
2018-Feb-19 13:58N 52°31' E 004°21'0 0.0
2018-Feb-19 13:28N 52°31' E 004°21'0 0.0
2018-Feb-19 12:58N 52°31' E 004°21'0 0.0
2018-Feb-19 12:28N 52°31' E 004°21'0 0.0
2018-Feb-19 11:55N 52°31' E 004°21'0 0.0
2018-Feb-19 11:28N 52°31' E 004°21'0 0.0
2018-Feb-19 10:52N 52°31' E 004°21'0 0.2
2018-Feb-19 10:31N 52°31' E 004°21'0 0.1
2018-Feb-19 10:01N 52°31' E 004°21'0 0.1
2018-Feb-19 09:30N 52°31' E 004°21'0 0.0
2018-Feb-19 09:00N 52°31' E 004°21'0 0.0
2018-Feb-19 08:12N 52°31' E 004°21'0 0.0
2018-Feb-19 07:57N 52°31' E 004°21'0 0.0
2018-Feb-19 07:30N 52°31' E 004°21'0 0.0
2018-Feb-19 07:00N 52°31' E 004°21'0 0.0
2018-Feb-19 06:27N 52°31' E 004°21'0 0.0
2018-Feb-19 05:57N 52°31' E 004°21'0 0.0
2018-Feb-19 05:30N 52°31' E 004°21'0 0.0
2018-Feb-19 04:57N 52°31' E 004°21'0 0.0
2018-Feb-19 04:30N 52°31' E 004°21'0 0.0
2018-Feb-19 03:54N 52°31' E 004°21'0 0.0
2018-Feb-19 03:27N 52°31' E 004°21'0 0.0
2018-Feb-19 02:57N 52°31' E 004°21'0 0.0
2018-Feb-19 02:27N 52°31' E 004°21'0 0.0
2018-Feb-19 02:00N 52°31' E 004°21'0 0.1
2018-Feb-19 01:30N 52°31' E 004°21'0 0.1
2018-Feb-19 01:00N 52°31' E 004°21'0 0.0
2018-Feb-19 00:30N 52°31' E 004°21'0 0.0
2018-Feb-19 00:00N 52°31' E 004°21'0 0.0
2018-Feb-18 23:30N 52°31' E 004°21'0 0.0
2018-Feb-18 23:00N 52°31' E 004°21'0 0.0
2018-Feb-18 22:30N 52°31' E 004°21'0 0.0
2018-Feb-18 21:57N 52°31' E 004°21'0 0.1
2018-Feb-18 21:30N 52°31' E 004°21'0 0.1
2018-Feb-18 21:00N 52°31' E 004°21'0 0.0
2018-Feb-18 20:21N 52°31' E 004°21'0 0.0
2018-Feb-18 19:57N 52°31' E 004°21'0 0.0
2018-Feb-18 19:30N 52°31' E 004°21'0 0.0
2018-Feb-18 19:00N 52°31' E 004°21'0 0.0
2018-Feb-18 18:30N 52°31' E 004°21'0 0.0
2018-Feb-18 17:51N 52°31' E 004°21'0 0.0
2018-Feb-18 17:30N 52°31' E 004°21'0 0.0
2018-Feb-18 16:57N 52°31' E 004°21'0 0.0
2018-Feb-18 16:21N 52°31' E 004°21'0 0.0
2018-Feb-18 16:00N 52°31' E 004°21'0 0.0
2018-Feb-18 15:27N 52°31' E 004°21'0 0.0
2018-Feb-18 15:00N 52°31' E 004°21'0 0.1
2018-Feb-18 14:30N 52°31' E 004°21'0 0.1
2018-Feb-18 14:00N 52°31' E 004°21'0 0.0
2018-Feb-18 13:27N 52°31' E 004°21'0 0.0
2018-Feb-18 13:00N 52°31' E 004°21'0 0.0
2018-Feb-18 12:27N 52°31' E 004°21'0 0.0
2018-Feb-18 12:00N 52°31' E 004°21'0 0.0
2018-Feb-18 11:24N 52°31' E 004°21'0 0.0
2018-Feb-18 11:00N 52°31' E 004°21'0 0.0
2018-Feb-18 10:30N 52°31' E 004°21'0 0.0
2018-Feb-18 10:00N 52°31' E 004°21'0 0.0
2018-Feb-18 09:30N 52°31' E 004°21'0 0.1
2018-Feb-18 08:57N 52°31' E 004°21'0 0.0
2018-Feb-18 08:24N 52°31' E 004°21'0 0.0
2018-Feb-18 07:57N 52°31' E 004°21'0 0.0
2018-Feb-18 07:30N 52°31' E 004°21'0 0.0
2018-Feb-18 07:00N 52°31' E 004°21'0 0.0
2018-Feb-18 06:30N 52°31' E 004°21'0 0.0
2018-Feb-18 05:57N 52°31' E 004°21'0 0.0
2018-Feb-18 05:27N 52°31' E 004°21'0 0.0
2018-Feb-18 05:00N 52°31' E 004°21'0 0.0
2018-Feb-18 04:30N 52°31' E 004°21'0 0.0
2018-Feb-18 04:00N 52°31' E 004°21'0 0.0
2018-Feb-18 03:27N 52°31' E 004°21'0 0.0
2018-Feb-18 02:54N 52°31' E 004°21'0 0.0
2018-Feb-18 02:27N 52°31' E 004°21'0 0.0
2018-Feb-18 02:00N 52°31' E 004°21'0 0.1
2018-Feb-18 01:30N 52°31' E 004°21'0 0.1
2018-Feb-18 00:57N 52°31' E 004°21'0 0.0
2018-Feb-18 00:27N 52°31' E 004°21'0 0.0
2018-Feb-17 23:57N 52°31' E 004°21'0 0.0
2018-Feb-17 23:30N 52°31' E 004°21'0 0.0
2018-Feb-17 22:57N 52°31' E 004°21'0 0.0
2018-Feb-17 22:30N 52°31' E 004°21'0 0.0
2018-Feb-17 22:00N 52°31' E 004°21'0 0.0
2018-Feb-17 21:30N 52°31' E 004°21'0 0.0
2018-Feb-17 20:57N 52°31' E 004°21'0 0.1
2018-Feb-17 20:30N 52°31' E 004°21'0 0.0
2018-Feb-17 20:00N 52°31' E 004°21'0 0.0
2018-Feb-17 19:30N 52°31' E 004°21'0 0.0
2018-Feb-17 18:57N 52°31' E 004°21'0 0.0
2018-Feb-17 18:26N 52°31' E 004°21'0 0.0
2018-Feb-17 17:56N 52°31' E 004°21'0 0.0
2018-Feb-17 17:29N 52°31' E 004°21'0 0.0
2018-Feb-17 16:56N 52°31' E 004°21'0 0.0
2018-Feb-17 16:26N 52°31' E 004°21'0 0.0
2018-Feb-17 15:56N 52°31' E 004°21'0 0.0
2018-Feb-17 15:23N 52°31' E 004°21'0 0.0
2018-Feb-17 14:56N 52°31' E 004°21'0 0.0
2018-Feb-17 14:29N 52°31' E 004°21'0 0.2
2018-Feb-17 13:59N 52°31' E 004°21'2 4.8
2018-Feb-17 13:30N 52°29' E 004°20'5 9.8
2018-Feb-17 13:00N 52°29' E 004°12'5 9.8
2018-Feb-17 12:30N 52°28' E 004°04'5 9.5
2018-Feb-17 12:00N 52°27' E 003°56'4 8.5
2018-Feb-17 11:30N 52°23' E 003°52'5 9.4
2018-Feb-17 11:00N 52°18' E 003°52'5 9.6
2018-Feb-17 10:30N 52°14' E 003°53'5 9.6
2018-Feb-17 10:00N 52°09' E 003°54'5 9.2
2018-Feb-17 09:30N 52°04' E 003°55'5 9.0
2018-Feb-17 09:00N 52°00' E 003°53'4 7.9
2018-Feb-17 08:30N 51°57' E 003°49'1 1.4
2018-Feb-17 08:00N 51°56' E 003°49'0 0.0
2018-Feb-17 07:27N 51°56' E 003°49'0 0.0
2018-Feb-17 06:57N 51°56' E 003°49'0 0.1
2018-Feb-17 06:30N 51°56' E 003°49'0 0.1
2018-Feb-17 06:00N 51°56' E 003°49'0 0.0
2018-Feb-17 05:21N 51°56' E 003°49'0 0.0
2018-Feb-17 05:00N 51°56' E 003°49'0 0.0
2018-Feb-17 04:27N 51°56' E 003°49'0 0.0
2018-Feb-17 04:00N 51°56' E 003°49'0 0.0
2018-Feb-17 03:30N 51°56' E 003°49'0 0.0
2018-Feb-17 03:00N 51°56' E 003°49'0 0.0
2018-Feb-17 02:30N 51°56' E 003°49'0 0.0
2018-Feb-17 02:00N 51°56' E 003°49'0 0.1
2018-Feb-17 01:30N 51°56' E 003°49'0 0.1
2018-Feb-17 01:00N 51°56' E 003°49'0 0.1
2018-Feb-17 00:30N 51°56' E 003°49'0 0.0
2018-Feb-16 23:48N 51°56' E 003°49'0 0.0
2018-Feb-16 23:30N 51°56' E 003°49'0 0.0
2018-Feb-16 22:54N 51°56' E 003°49'0 0.1
2018-Feb-16 22:30N 51°56' E 003°49'0 0.0
2018-Feb-16 21:57N 51°56' E 003°48'0 0.0
2018-Feb-16 21:15N 51°56' E 003°49'0 0.0
2018-Feb-16 20:27N 51°56' E 003°49'0 0.0
2018-Feb-16 20:00N 51°56' E 003°49'0 0.1
2018-Feb-16 19:27N 51°56' E 003°49'0 0.0
2018-Feb-16 12:15N 51°56' E 003°49'0 0.1
2018-Feb-16 12:00N 51°56' E 003°49'0 0.1
2018-Feb-16 11:21N 51°56' E 003°49'0 0.0
2018-Feb-16 11:00N 51°56' E 003°49'0 0.0
2018-Feb-16 10:30N 51°56' E 003°49'0 0.0
2018-Feb-16 09:48N 51°56' E 003°49'0 0.0
2018-Feb-16 09:30N 51°56' E 003°49'0 0.0
2018-Feb-16 08:48N 51°56' E 003°49'0 0.0
2018-Feb-16 08:21N 51°56' E 003°49'0 0.1
2018-Feb-16 08:00N 51°56' E 003°49'0 0.0
2018-Feb-16 07:30N 51°56' E 003°49'0 0.1
2018-Feb-16 06:45N 51°56' E 003°49'0 0.0
2018-Feb-15 23:56N 51°56' E 003°49'0 0.0
2018-Feb-15 23:02N 51°56' E 003°49'0 0.1
2018-Feb-15 22:53N 51°56' E 003°49'0 0.1
2018-Feb-15 22:29N 51°56' E 003°49'0 0.1
2018-Feb-15 21:56N 51°56' E 003°49'0 0.0
2018-Feb-15 20:41N 51°56' E 003°49'0 0.0
2018-Feb-15 20:17N 51°56' E 003°49'0 0.0
2018-Feb-15 19:47N 51°56' E 003°49'0 0.1
2018-Feb-15 19:26N 51°56' E 003°49'0 0.1
2018-Feb-15 18:59N 51°56' E 003°49'0 0.1
2018-Feb-15 18:14N 51°56' E 003°49'0 0.0
2018-Feb-15 17:05N 51°56' E 003°49'0 0.0
2018-Feb-15 16:14N 51°56' E 003°49'0 0.0
2018-Feb-15 11:41N 51°56' E 003°49'0 0.0
2018-Feb-15 11:20N 51°56' E 003°49'0 0.0
2018-Feb-15 10:53N 51°56' E 003°49'0 0.1
2018-Feb-15 10:11N 51°56' E 003°49'0 0.1
2018-Feb-15 09:50N 51°56' E 003°49'0 0.0
2018-Feb-15 08:38N 51°56' E 003°49'0 0.0
2018-Feb-15 08:20N 51°56' E 003°49'0 0.1
2018-Feb-15 07:56N 51°56' E 003°49'0 0.1
2018-Feb-15 07:02N 51°56' E 003°49'0 0.0
2018-Feb-15 06:59N 51°56' E 003°49'0 0.0
2018-Feb-15 05:47N 51°56' E 003°49'0 0.0
2018-Feb-15 05:29N 51°56' E 003°49'0 0.0
2018-Feb-15 04:53N 51°56' E 003°49'0 0.0
2018-Feb-15 04:20N 51°56' E 003°49'0 0.0
2018-Feb-15 03:53N 51°56' E 003°49'0 0.0
2018-Feb-15 03:29N 51°56' E 003°49'0 0.0
2018-Feb-15 02:53N 51°56' E 003°49'0 0.0
2018-Feb-15 02:29N 51°56' E 003°49'0 0.0
2018-Feb-15 01:59N 51°56' E 003°49'0 0.0
2018-Feb-15 00:44N 51°56' E 003°49'0 0.0
2018-Feb-15 00:29N 51°56' E 003°49'0 0.0
2018-Feb-14 23:56N 51°56' E 003°49'0 0.0
2018-Feb-14 23:29N 51°56' E 003°49'0 0.0
2018-Feb-14 22:53N 51°56' E 003°49'0 0.0
2018-Feb-14 22:17N 51°56' E 003°49'0 0.0
2018-Feb-14 21:59N 51°56' E 003°49'0 0.0
2018-Feb-14 21:23N 51°56' E 003°48'0 0.1
2018-Feb-14 20:59N 51°56' E 003°48'0 0.0
2018-Feb-14 20:29N 51°56' E 003°48'0 0.0
2018-Feb-14 19:56N 51°56' E 003°48'0 0.0
2018-Feb-14 19:26N 51°56' E 003°48'0 0.0
2018-Feb-14 18:56N 51°56' E 003°49'0 0.0
2018-Feb-14 17:32N 51°56' E 003°49'0 0.0
2018-Feb-14 17:23N 51°56' E 003°49'0 0.0
2018-Feb-14 16:50N 51°56' E 003°49'0 0.0
2018-Feb-14 16:20N 51°56' E 003°49'0 0.0
2018-Feb-14 15:59N 51°56' E 003°49'0 0.0
2018-Feb-14 15:23N 51°56' E 003°49'0 0.0
2018-Feb-14 14:11N 51°56' E 003°49'0 0.0
2018-Feb-14 13:53N 51°56' E 003°49'0 0.0
2018-Feb-14 13:29N 51°56' E 003°49'0 0.0
2018-Feb-14 12:56N 51°56' E 003°49'0 0.0
2018-Feb-14 12:26N 51°56' E 003°49'0 0.0
2018-Feb-14 11:38N 51°56' E 003°49'0 0.0
2018-Feb-14 11:17N 51°56' E 003°49'0 0.0
2018-Feb-14 10:53N 51°56' E 003°49'0 0.0
2018-Feb-14 09:55N 51°56' E 003°49'0 0.0
2018-Feb-14 09:28N 51°56' E 003°49'0 0.0
2018-Feb-14 08:52N 51°56' E 003°48'0 0.1
2018-Feb-14 08:25N 51°56' E 003°48'0 0.0
2018-Feb-14 07:52N 51°56' E 003°48'0 0.0
2018-Feb-14 07:28N 51°56' E 003°48'0 0.0
2018-Feb-14 06:52N 51°56' E 003°48'0 0.1
2018-Feb-14 06:25N 51°56' E 003°49'0 0.0
2018-Feb-14 05:55N 51°56' E 003°49'0 0.0
2018-Feb-14 05:19N 51°56' E 003°49'0 0.0
2018-Feb-14 04:40N 51°56' E 003°49'0 0.0
2018-Feb-14 04:10N 51°56' E 003°49'0 0.0
2018-Feb-14 03:46N 51°56' E 003°49'0 0.0
2018-Feb-14 03:28N 51°56' E 003°49'0 0.0
2018-Feb-14 02:52N 51°56' E 003°49'0 0.0
2018-Feb-14 02:28N 51°56' E 003°49'0 0.0
2018-Feb-14 01:52N 51°56' E 003°49'0 0.0
2018-Feb-14 01:25N 51°56' E 003°49'0 0.0
2018-Feb-14 00:58N 51°56' E 003°49'0 0.0
2018-Feb-14 00:16N 51°56' E 003°49'0 0.0
2018-Feb-13 23:55N 51°56' E 003°49'0 0.1
2018-Feb-13 23:16N 51°56' E 003°49'0 0.0
2018-Feb-13 22:58N 51°56' E 003°49'0 0.0
2018-Feb-13 21:25N 51°56' E 003°48'0 0.0
2018-Feb-13 20:49N 51°56' E 003°48'0 0.1
2018-Feb-13 20:28N 51°56' E 003°48'0 0.0
2018-Feb-13 19:49N 51°56' E 003°48'0 0.0
2018-Feb-13 19:13N 51°56' E 003°48'0 0.1
2018-Feb-13 18:58N 51°56' E 003°48'0 0.0
2018-Feb-13 18:28N 51°56' E 003°48'0 0.1
2018-Feb-13 17:58N 51°56' E 003°49'0 0.0
2018-Feb-13 17:25N 51°56' E 003°49'0 0.0
2018-Feb-13 15:10N 51°56' E 003°49'0 0.0
2018-Feb-13 14:55N 51°56' E 003°49'0 0.0
2018-Feb-13 13:07N 51°56' E 003°49'0 0.0
2018-Feb-13 12:49N 51°56' E 003°49'0 0.0
2018-Feb-13 12:28N 51°56' E 003°49'0 0.0
2018-Feb-13 11:55N 51°56' E 003°49'  

Dump ship's entire track history